createdAt,value
2024-01-25T00:02:16.946Z,100.00
2024-01-25T00:04:45.354Z,100.00
2024-01-25T00:07:13.928Z,100.00
2024-01-25T00:09:42.263Z,100.00
2024-01-25T00:12:10.642Z,100.00
2024-01-25T00:14:38.835Z,100.00
2024-01-25T00:17:07.179Z,100.00
2024-01-25T00:19:36.501Z,100.00
2024-01-25T00:22:05.277Z,100.00
2024-01-25T00:24:34.600Z,100.00
2024-01-25T00:27:04.090Z,100.00
2024-01-25T00:29:32.499Z,100.00
2024-01-25T00:32:00.717Z,100.00
2024-01-25T00:34:29.613Z,100.00
2024-01-25T00:36:58.407Z,100.00
2024-01-25T00:39:27.332Z,100.00
2024-01-25T00:42:04.343Z,100.00
2024-01-25T00:44:33.358Z,100.00
2024-01-25T00:47:01.788Z,100.00
2024-01-25T00:49:30.718Z,100.00
2024-01-25T00:52:03.928Z,100.00
2024-01-25T00:54:32.734Z,100.00
2024-01-25T00:57:01.490Z,100.00
2024-01-25T00:59:30.109Z,100.00
2024-01-25T01:02:01.889Z,100.00
2024-01-25T01:04:31.669Z,100.00
2024-01-25T01:07:15.805Z,100.00
2024-01-25T01:09:44.253Z,100.00
2024-01-25T01:12:12.683Z,100.00
2024-01-25T01:14:40.904Z,100.00
2024-01-25T01:17:09.130Z,100.00
2024-01-25T01:19:37.415Z,100.00
2024-01-25T01:22:05.813Z,100.00
2024-01-25T01:24:34.134Z,100.00
2024-01-25T01:27:02.447Z,100.00
2024-01-25T01:29:30.833Z,100.00
2024-01-25T01:31:59.356Z,100.00
2024-01-25T01:34:28.003Z,100.00
2024-01-25T01:36:56.551Z,100.00
2024-01-25T01:39:24.913Z,100.00
2024-01-25T01:41:53.031Z,100.00
2024-01-25T01:44:22.058Z,100.00
2024-01-25T01:46:50.281Z,100.00
2024-01-25T01:49:19.320Z,100.00
2024-01-25T01:51:48.330Z,100.00
2024-01-25T01:54:16.940Z,100.00
2024-01-25T01:56:46.729Z,100.00
2024-01-25T01:59:16.601Z,100.00
2024-01-25T02:01:45.003Z,100.00
2024-01-25T02:04:13.624Z,100.00
2024-01-25T02:06:43.876Z,100.00
2024-01-25T02:09:12.283Z,100.00
2024-01-25T02:11:40.608Z,100.00
2024-01-25T02:14:12.233Z,100.00
2024-01-25T02:16:40.727Z,100.00
2024-01-25T02:19:09.356Z,100.00
2024-01-25T02:21:37.800Z,100.00
2024-01-25T02:24:07.073Z,100.00
2024-01-25T02:26:36.444Z,100.00
2024-01-25T02:29:06.376Z,100.00
2024-01-25T02:31:34.596Z,100.00
2024-01-25T02:34:02.967Z,100.00
2024-01-25T02:36:31.375Z,100.00
2024-01-25T02:38:59.655Z,100.00
2024-01-25T02:41:31.337Z,100.00
2024-01-25T02:43:59.703Z,100.00
2024-01-25T02:46:28.065Z,100.00
2024-01-25T02:48:56.464Z,100.00
2024-01-25T02:51:24.871Z,100.00
2024-01-25T02:53:53.095Z,100.00
2024-01-25T02:56:21.314Z,100.00
2024-01-25T02:58:49.640Z,100.00
2024-01-25T03:01:17.954Z,100.00
2024-01-25T03:03:46.400Z,100.00
2024-01-25T03:06:14.692Z,100.00
2024-01-25T03:08:43.009Z,100.00
2024-01-25T03:11:11.228Z,100.00
2024-01-25T03:13:39.649Z,100.00
2024-01-25T03:16:07.989Z,100.00
2024-01-25T03:18:36.393Z,100.00
2024-01-25T03:21:04.809Z,100.00
2024-01-25T03:23:33.034Z,100.00
2024-01-25T03:26:03.834Z,100.00
2024-01-25T03:28:33.131Z,100.00
2024-01-25T03:31:01.731Z,100.00
2024-01-25T03:33:30.657Z,100.00
2024-01-25T03:35:59.260Z,100.00
2024-01-25T03:38:27.472Z,100.00
2024-01-25T03:40:57.697Z,100.00
2024-01-25T03:43:27.613Z,100.00
2024-01-25T03:46:02.016Z,100.00
2024-01-25T03:48:30.435Z,100.00
2024-01-25T03:50:58.807Z,100.00
2024-01-25T03:53:27.029Z,100.00
2024-01-25T03:55:55.548Z,100.00
2024-01-25T03:58:23.882Z,100.00
2024-01-25T04:00:52.281Z,100.00
2024-01-25T04:03:20.850Z,100.00
2024-01-25T04:05:50.036Z,100.00
2024-01-25T04:08:19.066Z,100.00
2024-01-25T04:10:47.282Z,100.00
2024-01-25T04:13:15.530Z,100.00
2024-01-25T04:15:43.859Z,100.00
2024-01-25T04:18:12.231Z,100.00
2024-01-25T04:20:41.563Z,100.00
2024-01-25T04:23:09.887Z,100.00
2024-01-25T04:25:38.157Z,100.00
2024-01-25T04:28:06.852Z,100.00
2024-01-25T04:30:35.245Z,100.00
2024-01-25T04:33:04.249Z,100.00
2024-01-25T04:35:33.401Z,100.00
2024-01-25T04:38:01.916Z,100.00
2024-01-25T04:40:30.302Z,100.00
2024-01-25T04:42:58.684Z,100.00
2024-01-25T04:45:26.878Z,100.00
2024-01-25T04:47:55.173Z,100.00
2024-01-25T04:50:23.807Z,100.00
2024-01-25T04:52:52.247Z,100.00
2024-01-25T04:55:21.601Z,100.00
2024-01-25T04:57:54.642Z,100.00
2024-01-25T05:00:23.964Z,100.00
2024-01-25T05:02:52.247Z,100.00
2024-01-25T05:05:20.535Z,100.00
2024-01-25T05:07:49.063Z,100.00
2024-01-25T05:10:17.556Z,100.00
2024-01-25T05:12:45.875Z,100.00
2024-01-25T05:15:14.251Z,100.00
2024-01-25T05:17:42.503Z,100.00
2024-01-25T05:20:11.732Z,100.00
2024-01-25T05:22:42.214Z,100.00
2024-01-25T05:25:11.269Z,100.00
2024-01-25T05:27:39.741Z,100.00
2024-01-25T05:30:08.869Z,100.00
2024-01-25T05:32:37.715Z,100.00
2024-01-25T05:35:07.145Z,100.00
2024-01-25T05:37:35.472Z,100.00
2024-01-25T05:40:04.227Z,100.00
2024-01-25T05:42:33.611Z,100.00
2024-01-25T05:45:02.225Z,100.00
2024-01-25T05:47:31.517Z,100.00
2024-01-25T05:49:59.935Z,100.00
2024-01-25T05:52:28.873Z,100.00
2024-01-25T05:54:57.168Z,100.00
2024-01-25T05:57:25.432Z,100.00
2024-01-25T05:59:53.548Z,100.00
2024-01-25T06:02:21.822Z,100.00
2024-01-25T06:04:50.449Z,100.00
2024-01-25T06:07:19.252Z,100.00
2024-01-25T06:09:47.921Z,100.00
2024-01-25T06:12:16.190Z,100.00
2024-01-25T06:14:44.380Z,100.00
2024-01-25T06:17:13.214Z,100.00
2024-01-25T06:19:41.697Z,100.00
2024-01-25T06:22:10.264Z,100.00
2024-01-25T06:24:39.110Z,100.00
2024-01-25T06:27:07.383Z,100.00
2024-01-25T06:29:35.604Z,100.00
2024-01-25T06:32:10.560Z,100.00
2024-01-25T06:34:39.575Z,100.00
2024-01-25T06:37:08.067Z,100.00
2024-01-25T06:39:36.448Z,100.00
2024-01-25T06:42:05.303Z,100.00
2024-01-25T06:44:33.566Z,100.00
2024-01-25T06:47:01.777Z,100.00
2024-01-25T06:49:30.165Z,100.00
2024-01-25T06:51:58.543Z,100.00
2024-01-25T06:54:26.852Z,100.00
2024-01-25T06:56:57.674Z,100.00
2024-01-25T06:59:26.099Z,100.00
2024-01-25T07:01:55.527Z,100.00
2024-01-25T07:04:24.343Z,100.00
2024-01-25T07:06:53.420Z,100.00
2024-01-25T07:09:21.880Z,100.00
2024-01-25T07:11:50.105Z,100.00
2024-01-25T07:14:18.523Z,100.00
2024-01-25T07:16:46.749Z,100.00
2024-01-25T07:19:15.701Z,100.00
2024-01-25T07:21:47.257Z,100.00
2024-01-25T07:24:15.716Z,100.00
2024-01-25T07:26:43.942Z,100.00
2024-01-25T07:29:12.261Z,100.00
2024-01-25T07:31:40.480Z,100.00
2024-01-25T07:34:08.772Z,100.00
2024-01-25T07:36:37.174Z,100.00
2024-01-25T07:39:05.944Z,100.00
2024-01-25T07:41:35.419Z,100.00
2024-01-25T07:44:04.500Z,100.00
2024-01-25T07:46:33.325Z,100.00
2024-01-25T07:49:01.750Z,100.00
2024-01-25T07:51:30.408Z,100.00
2024-01-25T07:53:58.724Z,100.00
2024-01-25T07:56:26.998Z,100.00
2024-01-25T07:58:55.214Z,100.00
2024-01-25T08:01:23.562Z,100.00
2024-01-25T08:03:52.134Z,100.00
2024-01-25T08:06:20.618Z,100.00
2024-01-25T08:08:48.901Z,100.00
2024-01-25T08:11:20.033Z,100.00
2024-01-25T08:13:51.722Z,100.00
2024-01-25T08:16:23.428Z,100.00
2024-01-25T08:18:51.953Z,100.00
2024-01-25T08:21:20.469Z,100.00
2024-01-25T08:23:48.957Z,100.00
2024-01-25T08:26:17.584Z,100.00
2024-01-25T08:28:45.923Z,100.00
2024-01-25T08:31:14.411Z,100.00
2024-01-25T08:33:49.300Z,100.00
2024-01-25T08:36:21.099Z,100.00
2024-01-25T08:38:49.525Z,100.00
2024-01-25T08:41:17.978Z,99.98
2024-01-25T08:43:46.372Z,100.00
2024-01-25T08:46:17.091Z,100.00
2024-01-25T08:48:45.758Z,100.00
2024-01-25T08:51:14.345Z,100.00
2024-01-25T08:53:42.554Z,100.00
2024-01-25T08:56:11.224Z,99.90
2024-01-25T08:58:39.592Z,99.94
2024-01-25T09:01:07.992Z,99.93
2024-01-25T09:03:36.494Z,100.00
2024-01-25T09:06:07.795Z,99.93
2024-01-25T09:08:36.337Z,99.82
2024-01-25T09:11:05.226Z,98.42
2024-01-25T09:13:34.065Z,98.67
2024-01-25T09:16:13.562Z,98.64
2024-01-25T09:18:42.091Z,98.99
2024-01-25T09:21:10.440Z,99.24
2024-01-25T09:23:38.661Z,98.53
2024-01-25T09:26:06.889Z,98.38
2024-01-25T09:28:35.291Z,98.70
2024-01-25T09:31:04.487Z,98.20
2024-01-25T09:33:35.573Z,97.67
2024-01-25T09:36:04.764Z,96.87
2024-01-25T09:38:33.563Z,95.65
2024-01-25T09:41:02.581Z,97.78
2024-01-25T09:43:32.193Z,97.70
2024-01-25T09:46:02.062Z,96.01
2024-01-25T09:48:30.863Z,95.33
2024-01-25T09:51:00.699Z,94.16
2024-01-25T09:53:35.089Z,94.82
2024-01-25T09:56:14.607Z,95.38
2024-01-25T09:58:45.664Z,94.85
2024-01-25T10:01:16.711Z,93.74
2024-01-25T10:03:49.169Z,93.93
2024-01-25T10:06:18.701Z,93.50
2024-01-25T10:08:47.869Z,93.69
2024-01-25T10:11:17.082Z,94.30
2024-01-25T10:13:46.902Z,93.95
2024-01-25T10:16:16.704Z,93.59
2024-01-25T10:18:48.319Z,92.97
2024-01-25T10:21:18.841Z,92.29
2024-01-25T10:23:52.960Z,92.71
2024-01-25T10:26:21.565Z,91.79
2024-01-25T10:28:58.051Z,90.71
2024-01-25T10:31:31.029Z,91.83
2024-01-25T10:34:01.833Z,90.76
2024-01-25T10:36:32.509Z,90.66
2024-01-25T10:39:06.173Z,91.00
2024-01-25T10:41:36.266Z,92.37
2024-01-25T10:44:07.993Z,91.59
2024-01-25T10:46:38.632Z,91.80
2024-01-25T10:49:09.205Z,91.88
2024-01-25T10:51:38.100Z,93.33
2024-01-25T10:54:08.400Z,93.44
2024-01-25T10:56:38.281Z,93.29
2024-01-25T10:59:07.665Z,94.04
2024-01-25T11:01:36.936Z,95.03
2024-01-25T11:04:14.537Z,94.71
2024-01-25T11:06:44.330Z,95.50
2024-01-25T11:09:19.355Z,95.87
2024-01-25T11:11:55.457Z,94.23
2024-01-25T11:14:26.695Z,93.18
2024-01-25T11:16:55.616Z,92.94
2024-01-25T11:19:24.324Z,93.26
2024-01-25T11:21:54.467Z,94.00
2024-01-25T11:24:25.536Z,94.21
2024-01-25T11:26:55.926Z,94.82
2024-01-25T11:29:25.653Z,95.97
2024-01-25T11:31:54.688Z,96.59
2024-01-25T11:34:24.715Z,96.68
2024-01-25T11:36:53.176Z,96.32
2024-01-25T11:39:21.460Z,96.72
2024-01-25T11:41:53.035Z,96.45
2024-01-25T11:44:24.107Z,95.10
2024-01-25T11:46:55.759Z,94.77
2024-01-25T11:49:26.336Z,95.37
2024-01-25T11:51:55.598Z,96.46
2024-01-25T11:54:24.122Z,96.67
2024-01-25T11:56:52.754Z,96.85
2024-01-25T11:59:21.253Z,97.47
2024-01-25T12:01:50.117Z,97.35
2024-01-25T12:04:19.993Z,96.63
2024-01-25T12:06:49.544Z,96.70
2024-01-25T12:09:17.943Z,96.29
2024-01-25T12:11:52.062Z,96.21
2024-01-25T12:14:20.800Z,96.40
2024-01-25T12:16:49.101Z,95.69
2024-01-25T12:19:17.792Z,95.39
2024-01-25T12:21:46.162Z,94.98
2024-01-25T12:24:14.582Z,95.48
2024-01-25T12:26:43.507Z,95.70
2024-01-25T12:29:12.228Z,95.55
2024-01-25T12:31:40.628Z,94.91
2024-01-25T12:34:17.938Z,94.63
2024-01-25T12:36:46.626Z,94.16
2024-01-25T12:39:18.288Z,93.58
2024-01-25T12:41:48.852Z,92.64
2024-01-25T12:44:17.607Z,91.16
2024-01-25T12:46:45.926Z,89.39
2024-01-25T12:49:14.450Z,85.73
2024-01-25T12:51:43.147Z,84.22
2024-01-25T12:54:11.712Z,80.68
2024-01-25T12:56:40.233Z,79.27
2024-01-25T12:59:10.262Z,77.55
2024-01-25T13:01:38.795Z,76.65
2024-01-25T13:04:07.535Z,76.11
2024-01-25T13:06:36.215Z,75.39
2024-01-25T13:09:05.129Z,76.04
2024-01-25T13:11:33.452Z,75.55
2024-01-25T13:14:01.886Z,73.57
2024-01-25T13:16:30.092Z,72.66
2024-01-25T13:18:58.628Z,72.54
2024-01-25T13:21:26.872Z,69.90
2024-01-25T13:23:55.265Z,67.79
2024-01-25T13:26:23.673Z,65.13
2024-01-25T13:28:52.202Z,64.65
2024-01-25T13:31:20.759Z,63.35
2024-01-25T13:33:49.357Z,62.80
2024-01-25T13:36:17.909Z,61.65
2024-01-25T13:38:46.193Z,61.33
2024-01-25T13:41:14.502Z,61.12
2024-01-25T13:43:42.735Z,63.03
2024-01-25T13:46:10.940Z,65.28
2024-01-25T13:48:39.312Z,67.46
2024-01-25T13:51:07.584Z,69.69
2024-01-25T13:53:37.110Z,72.08
2024-01-25T13:56:05.925Z,73.74
2024-01-25T13:58:34.451Z,75.92
2024-01-25T14:01:02.848Z,78.20
2024-01-25T14:03:32.583Z,79.30
2024-01-25T14:06:05.468Z,80.61
2024-01-25T14:08:33.965Z,81.75
2024-01-25T14:11:03.277Z,83.09
2024-01-25T14:13:31.703Z,84.64
2024-01-25T14:16:03.131Z,85.83
2024-01-25T14:18:38.294Z,87.02
2024-01-25T14:21:07.467Z,88.10
2024-01-25T14:23:38.644Z,87.48
2024-01-25T14:26:07.352Z,86.77
2024-01-25T14:28:35.875Z,87.36
2024-01-25T14:31:04.544Z,88.23
2024-01-25T14:33:33.418Z,89.36
2024-01-25T14:36:02.055Z,90.53
2024-01-25T14:38:30.288Z,91.45
2024-01-25T14:41:01.542Z,92.87
2024-01-25T14:43:31.071Z,93.81
2024-01-25T14:45:59.441Z,94.55
2024-01-25T14:48:27.896Z,95.66
2024-01-25T14:50:56.189Z,96.22
2024-01-25T14:53:24.616Z,96.69
2024-01-25T14:55:52.838Z,97.97
2024-01-25T14:58:24.046Z,98.18
2024-01-25T15:00:53.742Z,99.38
2024-01-25T15:03:22.437Z,99.84
2024-01-25T15:05:51.689Z,100.00
2024-01-25T15:08:20.794Z,100.00
2024-01-25T15:10:49.688Z,100.00
2024-01-25T15:13:17.909Z,100.00
2024-01-25T15:15:46.160Z,100.00
2024-01-25T15:18:14.637Z,100.00
2024-01-25T15:20:42.980Z,100.00
2024-01-25T15:23:11.292Z,100.00
2024-01-25T15:25:40.125Z,100.00
2024-01-25T15:28:08.336Z,100.00
2024-01-25T15:30:36.735Z,100.00
2024-01-25T15:33:07.238Z,100.00
2024-01-25T15:35:35.603Z,100.00
2024-01-25T15:38:07.032Z,100.00
2024-01-25T15:40:36.157Z,100.00
2024-01-25T15:43:04.996Z,100.00
2024-01-25T15:45:33.396Z,100.00
2024-01-25T15:48:01.824Z,100.00
2024-01-25T15:50:30.239Z,100.00
2024-01-25T15:52:58.457Z,100.00
2024-01-25T15:55:26.661Z,100.00
2024-01-25T15:57:54.933Z,100.00
2024-01-25T16:00:23.418Z,100.00
2024-01-25T16:02:53.259Z,100.00
2024-01-25T16:05:21.864Z,100.00
2024-01-25T16:07:50.566Z,100.00
2024-01-25T16:10:19.634Z,100.00
2024-01-25T16:12:48.185Z,100.00
2024-01-25T16:15:18.762Z,100.00
2024-01-25T16:17:47.665Z,100.00
2024-01-25T16:20:18.131Z,100.00
2024-01-25T16:22:46.623Z,100.00
2024-01-25T16:25:15.049Z,100.00
2024-01-25T16:27:43.955Z,100.00
2024-01-25T16:30:13.178Z,100.00
2024-01-25T16:32:41.594Z,100.00
2024-01-25T16:35:10.194Z,100.00
2024-01-25T16:37:38.452Z,100.00
2024-01-25T16:40:08.064Z,100.00
2024-01-25T16:42:36.300Z,100.00
2024-01-25T16:45:05.210Z,100.00
2024-01-25T16:47:33.489Z,100.00
2024-01-25T16:50:01.864Z,100.00
2024-01-25T16:52:30.202Z,100.00
2024-01-25T16:54:58.633Z,100.00
2024-01-25T16:57:27.161Z,100.00
2024-01-25T16:59:55.733Z,100.00
2024-01-25T17:02:23.956Z,100.00
2024-01-25T17:04:52.782Z,100.00
2024-01-25T17:07:21.465Z,100.00
2024-01-25T17:09:50.022Z,100.00
2024-01-25T17:12:18.869Z,100.00
2024-01-25T17:14:47.170Z,100.00
2024-01-25T17:17:15.385Z,100.00
2024-01-25T17:19:44.191Z,100.00
2024-01-25T17:22:12.449Z,100.00
2024-01-25T17:24:40.674Z,100.00
2024-01-25T17:27:09.580Z,100.00
2024-01-25T17:29:37.895Z,100.00
2024-01-25T17:32:06.828Z,100.00
2024-01-25T17:34:35.659Z,100.00
2024-01-25T17:37:04.164Z,100.00
2024-01-25T17:39:32.412Z,100.00
2024-01-25T17:42:01.310Z,100.00
2024-01-25T17:44:29.542Z,100.00
2024-01-25T17:46:57.938Z,100.00
2024-01-25T17:49:26.586Z,100.00
2024-01-25T17:51:54.969Z,100.00
2024-01-25T17:54:23.550Z,100.00
2024-01-25T17:56:51.944Z,100.00
2024-01-25T17:59:22.293Z,100.00
2024-01-25T18:01:51.349Z,100.00
2024-01-25T18:04:20.207Z,100.00
2024-01-25T18:06:48.457Z,100.00
2024-01-25T18:09:16.784Z,100.00
2024-01-25T18:11:46.569Z,100.00
2024-01-25T18:14:14.795Z,100.00
2024-01-25T18:16:43.025Z,100.00
2024-01-25T18:19:11.597Z,100.00
2024-01-25T18:21:45.498Z,100.00
2024-01-25T18:24:15.338Z,100.00
2024-01-25T18:26:45.628Z,100.00
2024-01-25T18:29:16.130Z,100.00
2024-01-25T18:31:44.284Z,100.00
2024-01-25T18:34:12.550Z,100.00
2024-01-25T18:36:41.171Z,100.00
2024-01-25T18:39:09.442Z,100.00
2024-01-25T18:41:37.967Z,100.00
2024-01-25T18:44:06.191Z,100.00
2024-01-25T18:46:36.170Z,100.00
2024-01-25T18:49:04.721Z,100.00
2024-01-25T18:51:33.103Z,100.00
2024-01-25T18:54:01.885Z,100.00
2024-01-25T18:56:30.501Z,100.00
2024-01-25T18:58:59.245Z,100.00
2024-01-25T19:01:27.951Z,100.00
2024-01-25T19:03:56.721Z,100.00
2024-01-25T19:06:34.137Z,100.00
2024-01-25T19:09:03.768Z,100.00
2024-01-25T19:11:32.805Z,100.00
2024-01-25T19:14:02.448Z,100.00
2024-01-25T19:16:30.701Z,100.00
2024-01-25T19:18:59.050Z,100.00
2024-01-25T19:21:27.432Z,100.00
2024-01-25T19:23:55.665Z,100.00
2024-01-25T19:26:23.893Z,100.00
2024-01-25T19:28:52.112Z,100.00
2024-01-25T19:31:20.425Z,100.00
2024-01-25T19:33:48.870Z,100.00
2024-01-25T19:36:17.592Z,100.00
2024-01-25T19:38:45.886Z,100.00
2024-01-25T19:41:14.710Z,100.00
2024-01-25T19:43:43.938Z,100.00
2024-01-25T19:46:12.287Z,100.00
2024-01-25T19:48:40.642Z,100.00
2024-01-25T19:51:09.406Z,100.00
2024-01-25T19:53:37.618Z,100.00
2024-01-25T19:56:06.843Z,100.00
2024-01-25T19:58:35.510Z,100.00
2024-01-25T20:01:05.067Z,100.00
2024-01-25T20:03:33.779Z,100.00
2024-01-25T20:06:02.364Z,100.00
2024-01-25T20:08:31.052Z,100.00
2024-01-25T20:10:59.176Z,100.00
2024-01-25T20:13:29.499Z,100.00
2024-01-25T20:15:57.832Z,100.00
2024-01-25T20:18:26.714Z,100.00
2024-01-25T20:20:55.820Z,100.00
2024-01-25T20:23:25.197Z,100.00
2024-01-25T20:25:53.717Z,100.00
2024-01-25T20:28:22.877Z,100.00
2024-01-25T20:30:51.682Z,100.00
2024-01-25T20:33:20.419Z,100.00
2024-01-25T20:35:49.014Z,100.00
2024-01-25T20:38:17.226Z,100.00
2024-01-25T20:40:45.547Z,100.00
2024-01-25T20:43:13.983Z,100.00
2024-01-25T20:45:42.310Z,100.00
2024-01-25T20:48:10.815Z,100.00
2024-01-25T20:50:39.811Z,100.00
2024-01-25T20:53:08.422Z,100.00
2024-01-25T20:55:39.167Z,100.00
2024-01-25T20:58:07.499Z,100.00
2024-01-25T21:00:35.914Z,100.00
2024-01-25T21:03:05.057Z,100.00
2024-01-25T21:05:33.824Z,100.00
2024-01-25T21:08:02.607Z,100.00
2024-01-25T21:10:31.285Z,100.00
2024-01-25T21:13:00.081Z,100.00
2024-01-25T21:15:29.047Z,100.00
2024-01-25T21:17:57.260Z,100.00
2024-01-25T21:20:25.615Z,100.00
2024-01-25T21:22:53.918Z,100.00
2024-01-25T21:25:22.239Z,100.00
2024-01-25T21:27:50.581Z,100.00
2024-01-25T21:30:18.980Z,100.00
2024-01-25T21:32:47.430Z,100.00
2024-01-25T21:35:16.177Z,100.00
2024-01-25T21:37:44.347Z,100.00
2024-01-25T21:40:12.790Z,100.00
2024-01-25T21:42:41.136Z,100.00
2024-01-25T21:45:12.061Z,100.00
2024-01-25T21:47:43.122Z,100.00
2024-01-25T21:50:12.246Z,100.00
2024-01-25T21:52:41.700Z,100.00
2024-01-25T21:55:12.658Z,100.00
2024-01-25T21:57:48.896Z,100.00
2024-01-25T22:00:18.302Z,100.00
2024-01-25T22:02:48.297Z,100.00
2024-01-25T22:05:20.695Z,100.00
2024-01-25T22:07:49.571Z,100.00
2024-01-25T22:10:17.898Z,100.00
2024-01-25T22:12:46.267Z,100.00
2024-01-25T22:15:14.542Z,100.00
2024-01-25T22:17:42.992Z,100.00
2024-01-25T22:20:12.229Z,100.00
2024-01-25T22:22:41.112Z,100.00
2024-01-25T22:25:10.288Z,100.00
2024-01-25T22:27:39.204Z,100.00
2024-01-25T22:30:08.178Z,100.00
2024-01-25T22:32:36.493Z,100.00
2024-01-25T22:35:05.413Z,100.00
2024-01-25T22:37:33.740Z,100.00
2024-01-25T22:40:01.999Z,100.00
2024-01-25T22:42:30.412Z,100.00
2024-01-25T22:44:58.717Z,100.00
2024-01-25T22:47:26.936Z,100.00
2024-01-25T22:49:55.139Z,100.00
2024-01-25T22:52:24.573Z,100.00
2024-01-25T22:54:53.150Z,100.00
2024-01-25T22:57:21.642Z,100.00
2024-01-25T22:59:50.939Z,100.00
2024-01-25T23:02:22.541Z,100.00
2024-01-25T23:04:51.182Z,100.00
2024-01-25T23:07:19.606Z,100.00
2024-01-25T23:09:48.331Z,100.00
2024-01-25T23:12:16.896Z,100.00
2024-01-25T23:14:45.396Z,100.00
2024-01-25T23:17:15.134Z,100.00
2024-01-25T23:19:43.445Z,100.00
2024-01-25T23:22:11.840Z,100.00
2024-01-25T23:24:40.217Z,100.00
2024-01-25T23:27:08.497Z,100.00
2024-01-25T23:29:36.703Z,100.00
2024-01-25T23:32:05.724Z,100.00
2024-01-25T23:34:33.952Z,100.00
2024-01-25T23:37:02.369Z,100.00
2024-01-25T23:39:31.021Z,100.00
2024-01-25T23:41:59.308Z,100.00
2024-01-25T23:44:27.728Z,100.00
2024-01-25T23:46:56.246Z,100.00
2024-01-25T23:49:24.573Z,100.00
2024-01-25T23:51:54.610Z,100.00
2024-01-25T23:54:23.538Z,100.00
2024-01-25T23:56:52.442Z,100.00
2024-01-25T23:59:20.761Z,100.00
